Time;durP1;ratioP1;P1;durP2;ratioP2;P2;SDS_P1;SDS_P2;PMS_P1;PMS_P2;Temp;Humidity;BMP_temperature;BMP_pressure;BME280_temperature;BME280_humidity;BME280_pressure;Samples;Min_cycle;Max_cycle;Signal;HPM_P1;HPM_P2
2022/03/14 00:01:55;;;;;;;0.60;0.60;;;11.00;99.90;;;;;;5025261;28;20209;-84
2022/03/14 00:04:20;;;;;;;0.47;0.47;;;11.00;99.90;;;;;;5023751;28;20222;-85
2022/03/14 00:06:49;;;;;;;1.17;0.67;;;11.00;99.90;;;;;;5018471;28;20198;-85
2022/03/14 00:09:16;;;;;;;1.00;1.00;;;10.80;99.90;;;;;;5024862;28;20206;-85
2022/03/14 00:11:43;;;;;;;1.30;0.50;;;10.60;99.90;;;;;;5021748;28;20707;-85
2022/03/14 00:14:09;;;;;;;1.03;0.77;;;10.40;99.90;;;;;;5026420;28;20233;-85
2022/03/14 00:16:45;;;;;;;0.60;0.60;;;10.40;99.90;;;;;;5025366;28;20186;-85
2022/03/14 00:19:14;;;;;;;0.53;0.53;;;10.60;99.90;;;;;;5024905;28;20182;-85
2022/03/14 00:21:40;;;;;;;0.40;0.33;;;10.70;99.90;;;;;;5025429;28;20202;-85
2022/03/14 00:24:08;;;;;;;1.67;0.93;;;10.90;99.90;;;;;;5025722;28;20183;-85
2022/03/14 00:26:34;;;;;;;0.83;0.70;;;10.90;99.90;;;;;;5023919;28;20262;-85
2022/03/14 00:29:00;;;;;;;1.60;0.63;;;10.90;99.90;;;;;;5025666;28;20199;-85
2022/03/14 00:31:25;;;;;;;1.80;1.07;;;10.90;99.90;;;;;;5024371;28;20565;-85
2022/03/14 00:33:51;;;;;;;0.70;0.60;;;10.80;99.90;;;;;;5026444;28;20178;-85
2022/03/14 00:36:19;;;;;;;3.83;1.70;;;10.70;99.90;;;;;;5021985;28;20183;-85
2022/03/14 00:38:45;;;;;;;0.40;0.40;;;10.60;99.90;;;;;;5021130;28;20232;-85
2022/03/14 00:41:12;;;;;;;0.20;0.20;;;10.60;99.90;;;;;;5024492;28;20214;-85
2022/03/14 00:43:38;;;;;;;0.37;0.37;;;10.60;99.90;;;;;;5023343;28;20209;-85
2022/03/14 00:46:04;;;;;;;0.63;0.40;;;10.60;99.90;;;;;;5024050;28;21105;-85
2022/03/14 00:48:32;;;;;;;2.23;1.47;;;10.60;99.90;;;;;;5023442;28;20217;-85
2022/03/14 00:50:58;;;;;;;1.80;1.40;;;10.50;99.90;;;;;;5021089;28;20206;-85
2022/03/14 00:53:24;;;;;;;0.73;0.70;;;10.20;99.90;;;;;;5022427;28;20564;-85
2022/03/14 00:55:50;;;;;;;0.30;0.30;;;10.00;99.90;;;;;;5023987;28;20182;-84
2022/03/14 00:58:16;;;;;;;1.67;1.23;;;10.00;99.90;;;;;;5022694;28;20220;-86
2022/03/14 01:00:41;;;;;;;0.20;0.20;;;10.10;99.90;;;;;;5022534;28;20190;-85
2022/03/14 01:03:07;;;;;;;0.60;0.60;;;10.10;99.90;;;;;;5021890;28;20273;-85
2022/03/14 01:05:32;;;;;;;0.87;0.73;;;9.90;99.90;;;;;;5020886;28;20212;-85
2022/03/14 01:07:58;;;;;;;0.97;0.97;;;9.80;99.90;;;;;;5022299;28;20742;-84
2022/03/14 01:10:24;;;;;;;0.83;0.70;;;9.80;99.90;;;;;;5020301;28;20218;-85
2022/03/14 01:12:51;;;;;;;0.30;0.30;;;9.90;99.90;;;;;;5020311;28;20208;-85
2022/03/14 01:15:18;;;;;;;3.90;0.90;;;9.90;99.90;;;;;;5023401;28;20174;-85
2022/03/14 01:17:44;;;;;;;2.27;0.80;;;10.00;99.90;;;;;;5022517;28;20544;-85
2022/03/14 01:20:10;;;;;;;5.90;1.43;;;10.20;99.90;;;;;;5024666;28;20311;-85
2022/03/14 01:22:38;;;;;;;1.17;0.90;;;10.30;99.90;;;;;;5022717;28;20206;-85
2022/03/14 01:25:04;;;;;;;0.60;0.50;;;10.20;99.90;;;;;;5023390;28;20225;-85
2022/03/14 01:27:30;;;;;;;2.67;1.03;;;10.30;99.90;;;;;;5023919;28;20222;-84
2022/03/14 01:29:56;;;;;;;1.43;0.77;;;10.20;99.90;;;;;;5023917;28;20237;-84
2022/03/14 01:32:22;;;;;;;0.70;0.70;;;10.20;99.90;;;;;;5024681;28;20298;-85
2022/03/14 01:34:47;;;;;;;0.73;0.63;;;10.10;99.90;;;;;;5022565;28;20269;-85
2022/03/14 01:37:13;;;;;;;1.30;0.77;;;10.10;99.90;;;;;;5022143;28;20270;-84
2022/03/14 01:39:39;;;;;;;1.27;0.90;;;10.00;99.90;;;;;;5022067;28;20212;-85
2022/03/14 01:42:05;;;;;;;0.93;0.77;;;10.00;99.90;;;;;;5021307;28;20217;-85
2022/03/14 01:44:30;;;;;;;0.80;0.80;;;10.00;99.90;;;;;;5023845;28;20268;-85
2022/03/14 01:46:56;;;;;;;2.67;1.40;;;9.90;99.90;;;;;;5023128;28;20186;-85
2022/03/14 01:49:22;;;;;;;2.30;1.10;;;9.90;99.90;;;;;;5024194;28;20784;-85
2022/03/14 01:51:52;;;;;;;1.37;0.90;;;9.90;99.90;;;;;;5018376;28;20207;-84
2022/03/14 01:54:19;;;;;;;1.80;1.30;;;10.00;99.90;;;;;;5022609;28;20197;-85
2022/03/14 01:56:45;;;;;;;4.90;1.70;;;10.00;99.90;;;;;;5019502;28;20277;-85
2022/03/14 01:59:11;;;;;;;1.10;1.03;;;10.00;99.90;;;;;;5024385;28;20193;-85
2022/03/14 02:01:37;;;;;;;0.50;0.50;;;10.00;99.90;;;;;;5022610;28;20320;-85
2022/03/14 02:04:03;;;;;;;1.07;0.50;;;10.00;99.90;;;;;;5020273;28;20197;-85
2022/03/14 02:06:28;;;;;;;0.80;0.80;;;10.10;99.90;;;;;;5023530;28;20198;-85
2022/03/14 02:08:55;;;;;;;3.60;1.37;;;10.10;99.90;;;;;;5020182;28;20209;-85
2022/03/14 02:11:20;;;;;;;0.87;0.73;;;10.10;99.90;;;;;;5023251;28;20248;-85
2022/03/14 02:13:46;;;;;;;1.40;1.00;;;10.10;99.90;;;;;;5023461;28;20668;-85
2022/03/14 02:16:12;;;;;;;1.80;0.83;;;10.20;99.90;;;;;;5020494;28;20192;-85
2022/03/14 02:18:38;;;;;;;1.63;0.93;;;10.20;99.90;;;;;;5021680;28;20599;-85
2022/03/14 02:21:04;;;;;;;0.80;0.80;;;10.20;99.90;;;;;;5020006;28;20309;-84
2022/03/14 02:23:29;;;;;;;2.10;1.10;;;10.20;99.90;;;;;;5025685;28;21085;-85
2022/03/14 02:25:55;;;;;;;1.30;1.23;;;10.20;99.90;;;;;;5022411;28;20277;-85
2022/03/14 02:28:23;;;;;;;1.63;1.33;;;10.20;99.90;;;;;;5027393;28;20210;-85
2022/03/14 02:30:52;;;;;;;2.10;1.00;;;10.20;99.90;;;;;;5025187;28;20240;-85
2022/03/14 02:33:18;;;;;;;1.73;1.23;;;10.20;99.90;;;;;;5022428;28;20225;-85
2022/03/14 02:35:44;;;;;;;0.90;0.90;;;10.10;99.90;;;;;;5023857;28;20236;-86
2022/03/14 02:38:14;;;;;;;2.03;0.93;;;10.10;99.90;;;;;;5025196;28;20213;-85
2022/03/14 02:40:41;;;;;;;1.67;1.53;;;10.20;99.90;;;;;;5022302;28;20206;-85
2022/03/14 02:43:07;;;;;;;1.00;1.00;;;10.20;99.90;;;;;;5025239;28;20185;-85
2022/03/14 02:45:33;;;;;;;1.27;1.20;;;10.20;99.90;;;;;;5025200;28;20181;-85
2022/03/14 02:47:59;;;;;;;1.63;0.97;;;10.10;99.90;;;;;;5024893;28;20213;-85
2022/03/14 02:50:25;;;;;;;0.97;0.77;;;10.20;99.90;;;;;;5023277;28;20324;-85
2022/03/14 02:52:50;;;;;;;0.70;0.70;;;10.10;99.90;;;;;;5023584;28;20289;-84
2022/03/14 02:55:20;;;;;;;1.40;1.30;;;10.00;99.90;;;;;;5025503;28;20224;-85
2022/03/14 02:57:45;;;;;;;1.33;1.23;;;10.00;99.90;;;;;;5024228;28;20178;-85
2022/03/14 03:00:12;;;;;;;1.93;1.33;;;10.00;99.90;;;;;;5026335;28;20201;-85
2022/03/14 03:02:38;;;;;;;0.70;0.70;;;9.90;99.90;;;;;;5026868;28;20303;-85
2022/03/14 03:05:05;;;;;;;0.50;0.50;;;10.00;99.90;;;;;;5024626;28;21238;-85
2022/03/14 03:07:31;;;;;;;0.80;0.80;;;9.90;99.90;;;;;;5024965;28;20187;-85
2022/03/14 03:09:57;;;;;;;0.60;0.60;;;10.00;99.90;;;;;;5025274;28;21127;-85
2022/03/14 03:12:28;;;;;;;0.67;0.40;;;10.00;99.90;;;;;;5027761;28;20255;-85
2022/03/14 03:14:54;;;;;;;1.30;0.30;;;10.00;99.90;;;;;;5025014;28;20197;-85
2022/03/14 03:17:20;;;;;;;2.30;0.50;;;10.00;99.90;;;;;;5025831;28;20194;-85
2022/03/14 03:19:46;;;;;;;1.40;0.60;;;9.90;99.90;;;;;;5027531;28;20237;-85
2022/03/14 03:22:11;;;;;;;1.13;1.00;;;9.80;99.90;;;;;;5026757;28;20255;-85
2022/03/14 03:24:37;;;;;;;0.40;0.37;;;9.70;99.90;;;;;;5025501;28;20300;-85
2022/03/14 03:27:03;;;;;;;1.50;1.30;;;9.70;99.90;;;;;;5022913;28;20193;-85
2022/03/14 03:29:28;;;;;;;0.40;0.40;;;9.70;99.90;;;;;;5022989;28;20204;-85
2022/03/14 03:31:54;;;;;;;0.20;0.20;;;9.70;99.90;;;;;;5024243;28;20198;-85
2022/03/14 03:34:20;;;;;;;1.20;0.57;;;9.70;99.90;;;;;;5024349;28;20195;-85
2022/03/14 03:36:45;;;;;;;0.30;0.30;;;9.60;99.90;;;;;;5023189;28;20219;-85
2022/03/14 03:39:11;;;;;;;0.77;0.60;;;9.60;99.90;;;;;;5023748;28;20190;-85
2022/03/14 03:41:38;;;;;;;2.17;0.97;;;9.60;99.90;;;;;;5026932;28;20213;-85
2022/03/14 03:44:04;;;;;;;0.43;0.43;;;9.60;99.90;;;;;;5023754;28;21163;-85
2022/03/14 03:46:29;;;;;;;0.83;0.60;;;9.60;99.90;;;;;;5022679;28;20192;-85
2022/03/14 03:48:55;;;;;;;0.30;0.30;;;9.60;99.90;;;;;;5024670;28;20260;-85
2022/03/14 03:51:21;;;;;;;0.60;0.30;;;9.60;99.90;;;;;;5022230;28;20266;-85
2022/03/14 03:53:46;;;;;;;0.67;0.67;;;9.60;99.90;;;;;;5025475;28;20276;-85
2022/03/14 03:56:12;;;;;;;0.60;0.60;;;9.50;99.90;;;;;;5022239;28;20191;-85
2022/03/14 03:58:37;;;;;;;0.40;0.40;;;9.50;99.90;;;;;;5023553;28;20216;-84
2022/03/14 04:01:03;;;;;;;0.50;0.50;;;9.50;99.90;;;;;;5025885;28;20206;-85
2022/03/14 04:03:29;;;;;;;0.50;0.43;;;9.50;99.90;;;;;;5023283;28;20189;-85
2022/03/14 04:05:54;;;;;;;0.20;0.20;;;9.50;99.90;;;;;;5021778;28;20216;-85
2022/03/14 04:08:21;;;;;;;0.93;0.43;;;9.50;99.90;;;;;;5024500;28;20281;-85
2022/03/14 04:10:53;;;;;;;0.93;0.70;;;9.50;99.90;;;;;;5024831;28;20590;-85
2022/03/14 04:13:20;;;;;;;0.30;0.30;;;9.50;99.90;;;;;;5023431;28;20602;-85
2022/03/14 04:15:52;;;;;;;0.50;0.50;;;9.60;99.90;;;;;;5022148;28;20181;-85
2022/03/14 04:18:19;;;;;;;0.40;0.40;;;9.60;99.90;;;;;;5025608;28;20188;-85
2022/03/14 04:20:48;;;;;;;1.47;0.20;;;9.60;99.90;;;;;;5024663;28;20186;-85
2022/03/14 04:23:15;;;;;;;0.60;0.60;;;9.50;99.90;;;;;;5027125;28;20183;-85
2022/03/14 04:25:41;;;;;;;1.90;1.10;;;9.60;99.90;;;;;;5025754;28;20189;-86
2022/03/14 04:28:06;;;;;;;0.70;0.47;;;9.60;99.90;;;;;;5021038;28;20539;-85
2022/03/14 04:30:32;;;;;;;0.17;0.17;;;9.70;99.90;;;;;;5024839;28;20193;-85
2022/03/14 04:32:57;;;;;;;0.57;0.57;;;9.80;99.90;;;;;;5022162;28;20204;-85
2022/03/14 04:35:23;;;;;;;0.30;0.30;;;9.80;99.90;;;;;;5024357;28;20174;-85
2022/03/14 04:37:48;;;;;;;0.50;0.50;;;9.70;99.90;;;;;;5026691;28;20182;-85
2022/03/14 04:40:14;;;;;;;0.40;0.30;;;9.60;99.90;;;;;;5024538;28;20182;-85
2022/03/14 04:42:40;;;;;;;0.50;0.50;;;9.60;99.90;;;;;;5023244;28;20267;-85
2022/03/14 04:45:06;;;;;;;0.63;0.63;;;9.80;99.90;;;;;;5024412;28;20270;-85
2022/03/14 04:47:32;;;;;;;0.30;0.30;;;9.80;99.90;;;;;;5022099;28;20269;-85
2022/03/14 04:49:58;;;;;;;0.37;0.37;;;9.90;99.90;;;;;;5019341;28;20735;-85
2022/03/14 04:52:24;;;;;;;0.23;0.23;;;10.00;99.90;;;;;;5020918;28;20205;-85
2022/03/14 04:54:50;;;;;;;0.30;0.30;;;10.00;99.90;;;;;;5016568;28;20201;-85
2022/03/14 04:57:16;;;;;;;1.07;0.60;;;10.00;99.90;;;;;;5021251;28;20221;-85
2022/03/14 04:59:41;;;;;;;2.03;0.53;;;10.00;99.90;;;;;;5023209;28;20656;-85
2022/03/14 05:02:07;;;;;;;0.20;0.20;;;10.00;99.90;;;;;;5021343;28;20206;-85
2022/03/14 05:04:34;;;;;;;0.10;0.10;;;10.00;99.90;;;;;;5021735;28;20240;-85
2022/03/14 05:07:00;;;;;;;0.40;0.40;;;10.00;99.90;;;;;;5021885;28;20668;-86
2022/03/14 05:09:25;;;;;;;0.50;0.50;;;10.00;99.90;;;;;;5021235;28;20252;-85
2022/03/14 05:11:51;;;;;;;0.83;0.60;;;10.00;99.90;;;;;;5021096;28;20206;-85
2022/03/14 05:14:16;;;;;;;0.20;0.20;;;10.00;99.90;;;;;;5023348;28;20183;-85
2022/03/14 05:16:43;;;;;;;0.57;0.47;;;10.00;99.90;;;;;;5017184;28;20206;-85
2022/03/14 05:19:08;;;;;;;0.70;0.50;;;10.00;99.90;;;;;;5016827;28;21157;-85
2022/03/14 05:21:34;;;;;;;0.43;0.40;;;10.00;99.90;;;;;;5023319;28;20211;-85
2022/03/14 05:24:00;;;;;;;1.37;0.77;;;10.10;99.90;;;;;;5024231;28;20244;-85
2022/03/14 05:26:25;;;;;;;1.17;0.40;;;10.10;99.90;;;;;;5023860;28;20552;-85
2022/03/14 05:28:51;;;;;;;0.30;0.30;;;10.00;99.90;;;;;;5024120;28;20701;-85
2022/03/14 05:31:17;;;;;;;0.50;0.50;;;10.00;99.90;;;;;;5017098;28;20230;-86
2022/03/14 05:33:42;;;;;;;0.20;0.20;;;10.10;99.90;;;;;;5022677;28;20534;-85
2022/03/14 05:36:08;;;;;;;0.30;0.30;;;10.00;99.90;;;;;;5023518;28;20193;-85
2022/03/14 05:38:34;;;;;;;0.10;0.10;;;10.00;99.90;;;;;;5022026;28;20273;-85
2022/03/14 05:41:00;;;;;;;0.40;0.40;;;10.00;99.90;;;;;;5025272;28;20205;-85
2022/03/14 05:43:36;;;;;;;2.47;0.70;;;10.00;99.90;;;;;;5021843;28;20194;-85
2022/03/14 05:46:03;;;;;;;0.40;0.40;;;10.00;99.90;;;;;;5019806;28;20437;-85
2022/03/14 05:48:28;;;;;;;0.33;0.33;;;9.90;99.90;;;;;;5024733;28;20289;-84
2022/03/14 05:50:54;;;;;;;0.40;0.40;;;9.90;99.90;;;;;;5022702;28;20300;-85
2022/03/14 05:53:19;;;;;;;3.03;0.77;;;9.80;99.90;;;;;;5023748;28;20201;-85
2022/03/14 05:55:45;;;;;;;0.20;0.20;;;9.70;99.90;;;;;;5023102;28;20728;-84
2022/03/14 05:58:11;;;;;;;0.47;0.47;;;9.70;99.90;;;;;;5027017;28;20186;-85
2022/03/14 06:00:36;;;;;;;0.40;0.40;;;9.60;99.90;;;;;;5026932;28;20194;-85
2022/03/14 06:03:02;;;;;;;0.30;0.30;;;9.60;99.90;;;;;;5023592;28;20182;-85
2022/03/14 06:05:28;;;;;;;0.37;0.37;;;9.50;99.90;;;;;;5023512;28;20194;-85
2022/03/14 06:07:54;;;;;;;0.60;0.60;;;9.50;99.90;;;;;;5023001;28;20665;-85
2022/03/14 06:10:20;;;;;;;0.20;0.20;;;9.40;99.90;;;;;;5023575;28;20265;-84
2022/03/14 06:12:46;;;;;;;0.63;0.63;;;9.50;99.90;;;;;;5022262;28;20210;-85
2022/03/14 06:15:13;;;;;;;2.30;0.30;;;9.40;99.90;;;;;;5019464;28;20221;-85
2022/03/14 06:17:42;;;;;;;0.50;0.50;;;9.50;99.90;;;;;;5021689;28;20185;-85
2022/03/14 06:20:09;;;;;;;0.30;0.30;;;9.50;99.90;;;;;;5024327;28;20200;-86
2022/03/14 06:22:38;;;;;;;0.20;0.20;;;9.40;99.90;;;;;;5023167;28;20217;-85
2022/03/14 06:25:04;;;;;;;0.57;0.47;;;9.50;99.90;;;;;;5025004;28;20288;-84
2022/03/14 06:27:30;;;;;;;0.43;0.20;;;9.50;99.90;;;;;;5020624;28;20190;-86
2022/03/14 06:29:56;;;;;;;0.20;0.20;;;9.50;99.90;;;;;;5025118;28;20221;-86
2022/03/14 06:32:21;;;;;;;0.10;0.10;;;9.50;99.90;;;;;;5021158;28;20209;-85
2022/03/14 06:34:48;;;;;;;0.10;0.10;;;9.50;99.90;;;;;;5022466;28;20228;-86
2022/03/14 06:37:15;;;;;;;0.47;0.47;;;9.50;99.90;;;;;;5024232;28;20240;-85
2022/03/14 06:39:40;;;;;;;0.30;0.20;;;9.50;99.90;;;;;;5026215;28;20191;-86
2022/03/14 06:42:09;;;;;;;0.03;0.03;;;9.40;99.90;;;;;;5021395;28;20263;-85
2022/03/14 06:44:38;;;;;;;0.20;0.20;;;9.40;99.90;;;;;;5018251;28;20202;-85
2022/03/14 06:47:06;;;;;;;0.20;0.20;;;9.40;99.90;;;;;;5024601;28;20193;-82
2022/03/14 06:49:32;;;;;;;0.50;0.40;;;9.40;99.90;;;;;;5025887;28;20210;-82
2022/03/14 06:51:58;;;;;;;0.13;0.13;;;9.40;99.90;;;;;;5022793;28;20229;-83
2022/03/14 06:54:23;;;;;;;0.17;0.17;;;9.50;99.90;;;;;;5026343;28;20210;-83
2022/03/14 06:56:49;;;;;;;0.20;0.20;;;9.50;99.90;;;;;;5027811;28;20188;-83
2022/03/14 06:59:15;;;;;;;0.50;0.50;;;9.50;99.90;;;;;;5024086;28;20281;-83
2022/03/14 07:01:41;;;;;;;0.20;0.20;;;9.60;99.90;;;;;;5027222;28;20202;-83
2022/03/14 07:04:07;;;;;;;0.20;0.20;;;9.70;99.90;;;;;;5027128;28;20177;-82
2022/03/14 07:06:32;;;;;;;0.10;0.10;;;9.80;99.90;;;;;;5027710;28;21176;-82
2022/03/14 07:08:58;;;;;;;0.33;0.33;;;9.80;99.90;;;;;;5025376;28;20584;-83
2022/03/14 07:11:23;;;;;;;0.10;0.10;;;9.90;99.90;;;;;;5024422;28;20206;-83
2022/03/14 07:13:49;;;;;;;0.43;0.30;;;10.00;99.90;;;;;;5024150;28;20656;-82
2022/03/14 07:16:15;;;;;;;0.20;0.20;;;10.00;99.90;;;;;;5019886;28;20178;-81
2022/03/14 07:18:40;;;;;;;0.10;0.10;;;9.90;99.90;;;;;;5026074;28;20269;-81
2022/03/14 07:21:06;;;;;;;0.10;0.10;;;9.90;99.90;;;;;;5023167;28;20264;-81
2022/03/14 07:23:32;;;;;;;0.20;0.20;;;9.80;99.90;;;;;;5026685;28;20659;-81
2022/03/14 07:25:57;;;;;;;0.10;0.10;;;9.80;99.90;;;;;;5023720;28;21168;-82
2022/03/14 07:28:23;;;;;;;0.10;0.10;;;9.80;99.90;;;;;;5025511;28;20225;-85
2022/03/14 07:30:48;;;;;;;0.30;0.30;;;9.80;99.90;;;;;;5027406;28;21245;-83
2022/03/14 07:33:15;;;;;;;0.10;0.10;;;9.90;99.90;;;;;;5020214;28;20199;-83
2022/03/14 07:35:41;;;;;;;0.00;0.00;;;9.90;99.90;;;;;;5025867;28;20261;-83
2022/03/14 07:38:10;;;;;;;0.10;0.10;;;10.00;99.90;;;;;;5021055;28;20276;-83
2022/03/14 07:40:36;;;;;;;0.20;0.20;;;10.00;99.90;;;;;;5019883;28;20547;-83
2022/03/14 07:43:04;;;;;;;0.00;0.00;;;10.00;99.90;;;;;;5022827;28;20275;-85
2022/03/14 07:45:29;;;;;;;0.40;0.30;;;10.10;99.90;;;;;;5021968;28;20175;-85
2022/03/14 07:47:56;;;;;;;0.10;0.10;;;10.20;99.90;;;;;;5023529;28;20231;-85
2022/03/14 07:50:23;;;;;;;0.40;0.40;;;10.30;99.90;;;;;;5023734;28;20224;-85
2022/03/14 07:52:49;;;;;;;0.20;0.20;;;10.20;99.90;;;;;;5023644;28;20201;-85
2022/03/14 07:55:15;;;;;;;0.13;0.13;;;10.20;99.90;;;;;;5024274;28;20187;-84
2022/03/14 07:57:42;;;;;;;0.10;0.10;;;10.10;99.90;;;;;;5017213;28;20174;-85
2022/03/14 08:00:13;;;;;;;0.10;0.10;;;10.10;99.90;;;;;;5022382;28;20191;-86
2022/03/14 08:02:39;;;;;;;0.20;0.20;;;10.10;99.90;;;;;;5025306;28;20285;-85
2022/03/14 08:05:06;;;;;;;0.10;0.10;;;10.10;99.90;;;;;;5016881;28;20319;-85
2022/03/14 08:07:33;;;;;;;0.13;0.13;;;10.00;99.90;;;;;;5019264;28;20193;-85
2022/03/14 08:09:59;;;;;;;0.27;0.27;;;10.00;99.90;;;;;;5022379;28;20797;-84
2022/03/14 08:12:24;;;;;;;0.20;0.20;;;9.90;99.90;;;;;;5019779;28;20202;-84
2022/03/14 08:14:50;;;;;;;1.13;0.30;;;10.00;99.90;;;;;;5021968;28;20212;-84
2022/03/14 08:17:18;;;;;;;0.20;0.20;;;10.00;99.90;;;;;;5026005;28;20194;-84
2022/03/14 08:19:44;;;;;;;0.33;0.13;;;10.20;99.90;;;;;;5024501;28;20190;-84
2022/03/14 08:22:10;;;;;;;0.10;0.10;;;10.30;99.90;;;;;;5026612;28;21207;-84
2022/03/14 08:24:35;;;;;;;0.17;0.17;;;10.40;99.90;;;;;;5021890;28;20265;-84
2022/03/14 08:27:01;;;;;;;0.20;0.20;;;10.40;99.90;;;;;;5025389;28;20193;-84
2022/03/14 08:29:28;;;;;;;0.10;0.10;;;10.50;99.90;;;;;;5026752;28;20205;-84
2022/03/14 08:31:54;;;;;;;0.30;0.30;;;10.40;99.90;;;;;;5021569;28;20599;-84
2022/03/14 08:34:20;;;;;;;0.17;0.17;;;10.60;99.90;;;;;;5022188;28;20215;-84
2022/03/14 08:36:46;;;;;;;0.17;0.17;;;10.60;99.90;;;;;;5024326;28;20202;-85
2022/03/14 08:39:11;;;;;;;0.10;0.10;;;10.70;99.90;;;;;;5022116;28;20186;-84
2022/03/14 08:41:37;;;;;;;0.30;0.30;;;10.80;99.90;;;;;;5020326;28;21158;-84
2022/03/14 08:44:04;;;;;;;0.20;0.20;;;11.00;99.90;;;;;;5024338;28;20739;-84
2022/03/14 08:46:30;;;;;;;0.87;0.43;;;11.00;99.90;;;;;;5022787;28;20213;-84
2022/03/14 08:48:56;;;;;;;0.17;0.17;;;11.20;99.90;;;;;;5025913;28;20266;-84
2022/03/14 08:51:22;;;;;;;1.20;0.23;;;11.20;99.90;;;;;;5024412;28;20206;-84
2022/03/14 08:53:48;;;;;;;0.27;0.20;;;11.50;99.90;;;;;;5023569;28;20427;-84
2022/03/14 08:56:14;;;;;;;5.30;0.30;;;11.50;99.90;;;;;;5025422;28;20182;-84
2022/03/14 08:58:39;;;;;;;0.50;0.50;;;11.50;99.90;;;;;;5024154;28;20186;-84
2022/03/14 09:01:05;;;;;;;0.10;0.10;;;11.40;99.90;;;;;;5025920;28;20198;-84
2022/03/14 09:03:31;;;;;;;0.20;0.20;;;11.10;99.90;;;;;;5023980;28;20228;-84
2022/03/14 09:05:57;;;;;;;0.20;0.20;;;11.10;99.90;;;;;;5022001;28;20198;-85
2022/03/14 09:08:24;;;;;;;0.77;0.70;;;11.00;99.90;;;;;;5021687;28;20200;-84
2022/03/14 09:10:50;;;;;;;0.27;0.27;;;11.10;99.90;;;;;;5018876;28;20651;-83
2022/03/14 09:13:18;;;;;;;0.77;0.53;;;11.10;99.90;;;;;;5022199;28;20217;-83
2022/03/14 09:15:43;;;;;;;0.30;0.30;;;11.10;99.90;;;;;;5021426;28;20631;-84
2022/03/14 09:18:09;;;;;;;0.40;0.40;;;11.20;99.90;;;;;;5022456;28;20274;-84
2022/03/14 09:20:38;;;;;;;2.60;0.70;;;11.20;99.90;;;;;;5021988;28;20229;-82
2022/03/14 09:23:04;;;;;;;0.00;0.00;;;11.40;99.90;;;;;;5026026;28;20256;-81
2022/03/14 09:25:30;;;;;;;0.10;0.10;;;11.60;99.90;;;;;;5019940;28;20258;-82
2022/03/14 09:27:55;;;;;;;0.20;0.20;;;12.10;99.90;;;;;;5020784;28;20194;-82
2022/03/14 09:30:22;;;;;;;0.40;0.20;;;12.40;99.90;;;;;;5022228;28;20577;-83
2022/03/14 09:32:48;;;;;;;0.20;0.20;;;12.10;99.90;;;;;;5020249;28;20212;-82
2022/03/14 09:35:14;;;;;;;0.63;0.33;;;12.10;99.90;;;;;;5019398;28;20281;-82
2022/03/14 09:37:41;;;;;;;0.10;0.10;;;12.20;99.90;;;;;;5018904;28;20251;-82
2022/03/14 09:40:12;;;;;;;4.17;0.30;;;12.40;99.90;;;;;;5025210;28;20265;-82
2022/03/14 09:42:40;;;;;;;0.17;0.17;;;12.60;99.90;;;;;;5022910;28;20225;-82
2022/03/14 09:45:07;;;;;;;0.20;0.20;;;12.60;99.90;;;;;;5022047;28;20194;-84
2022/03/14 09:47:48;;;;;;;1.27;0.17;;;12.80;99.90;;;;;;5041476;28;20194;-83
2022/03/14 09:50:21;;;;;;;0.30;0.30;;;12.60;99.90;;;;;;5023195;28;20293;-83
2022/03/14 09:52:48;;;;;;;0.10;0.10;;;12.70;99.90;;;;;;5023465;28;20215;-83
2022/03/14 09:55:13;;;;;;;2.27;0.40;;;12.80;99.90;;;;;;5024215;28;20252;-82
2022/03/14 09:57:40;;;;;;;0.20;0.20;;;12.50;99.90;;;;;;5024148;28;20189;-81
2022/03/14 10:00:10;;;;;;;0.10;0.10;;;12.50;99.90;;;;;;5022497;28;20656;-81
2022/03/14 10:02:36;;;;;;;0.10;0.10;;;12.40;99.90;;;;;;5023792;28;20283;-83
2022/03/14 10:05:06;;;;;;;0.10;0.10;;;12.20;99.90;;;;;;5021484;28;20202;-82
2022/03/14 10:07:34;;;;;;;1.40;0.73;;;12.10;99.90;;;;;;5021059;28;20190;-82
2022/03/14 10:09:59;;;;;;;0.33;0.33;;;12.20;99.90;;;;;;5026390;28;20214;-83
2022/03/14 10:12:33;;;;;;;0.17;0.17;;;12.20;99.90;;;;;;5021019;28;20207;-81
2022/03/14 10:14:59;;;;;;;0.10;0.10;;;12.20;99.90;;;;;;5018781;28;20549;-81
2022/03/14 10:17:27;;;;;;;0.10;0.10;;;12.20;99.90;;;;;;5022537;28;20206;-82
2022/03/14 10:20:00;;;;;;;1.07;0.77;;;12.30;99.90;;;;;;5021580;28;20199;-81
2022/03/14 10:22:42;;;;;;;0.10;0.10;;;12.40;99.90;;;;;;5020585;28;20260;-81
2022/03/14 10:25:13;;;;;;;0.57;0.20;;;12.70;99.90;;;;;;5018815;28;20221;-81
2022/03/14 10:27:41;;;;;;;0.10;0.10;;;13.00;99.90;;;;;;5023076;28;20182;-81
2022/03/14 10:30:20;;;;;;;0.20;0.20;;;12.80;99.90;;;;;;5022940;28;20253;-81
2022/03/14 10:32:48;;;;;;;0.10;0.10;;;13.00;99.90;;;;;;5017895;28;20715;-81
2022/03/14 10:35:19;;;;;;;0.17;0.17;;;13.20;99.90;;;;;;5021430;28;20187;-80
2022/03/14 10:37:57;;;;;;;0.10;0.10;;;13.60;99.90;;;;;;5021391;28;20197;-81
2022/03/14 10:40:33;;;;;;;0.10;0.10;;;13.70;99.90;;;;;;5022942;28;20574;-82
2022/03/14 10:42:58;;;;;;;0.10;0.10;;;13.60;99.90;;;;;;5021473;28;20206;-82
2022/03/14 10:45:24;;;;;;;0.57;0.20;;;13.90;99.90;;;;;;5022663;28;20197;-83
2022/03/14 10:47:58;;;;;;;0.20;0.20;;;13.80;99.90;;;;;;5025165;28;20248;-83
2022/03/14 10:50:32;;;;;;;2.27;0.30;;;13.70;99.90;;;;;;5025974;28;20371;-83
2022/03/14 10:53:09;;;;;;;0.10;0.10;;;13.40;99.90;;;;;;5027199;28;20297;-83
2022/03/14 10:55:40;;;;;;;0.20;0.20;;;13.20;99.90;;;;;;5025734;28;20235;-83
2022/03/14 10:58:23;;;;;;;0.20;0.20;;;13.10;99.90;;;;;;5025756;28;20190;-83
2022/03/14 11:00:55;;;;;;;0.10;0.10;;;13.00;99.90;;;;;;5025355;28;20181;-83
2022/03/14 11:03:22;;;;;;;0.87;0.30;;;12.70;99.90;;;;;;5024264;28;20179;-83
2022/03/14 11:05:47;;;;;;;0.10;0.10;;;12.60;99.90;;;;;;5023797;28;20205;-82
2022/03/14 11:08:29;;;;;;;0.30;0.30;;;12.50;99.90;;;;;;5022347;28;20197;-83
2022/03/14 11:10:56;;;;;;;0.10;0.10;;;12.60;99.90;;;;;;5019330;28;20201;-85
2022/03/14 11:13:22;;;;;;;0.10;0.10;;;12.50;99.90;;;;;;5021874;28;20547;-85
2022/03/14 11:15:48;;;;;;;0.10;0.10;;;12.60;99.90;;;;;;5021087;28;20244;-85
2022/03/14 11:18:15;;;;;;;0.20;0.20;;;12.60;99.90;;;;;;5024599;28;20269;-85
2022/03/14 11:20:40;;;;;;;0.10;0.10;;;12.80;99.90;;;;;;5025568;28;20331;-85
2022/03/14 11:23:06;;;;;;;0.70;0.57;;;13.00;99.90;;;;;;5025369;28;20599;-83
2022/03/14 11:25:33;;;;;;;0.20;0.20;;;13.20;99.90;;;;;;5020938;28;20194;-85
2022/03/14 11:28:01;;;;;;;0.10;0.10;;;13.20;99.90;;;;;;5018309;28;20183;-85
2022/03/14 11:30:27;;;;;;;1.60;0.23;;;13.40;99.90;;;;;;5019839;28;20266;-85
2022/03/14 11:32:53;;;;;;;1.73;0.83;;;13.50;99.90;;;;;;5023622;28;20233;-85
2022/03/14 11:35:20;;;;;;;0.67;0.67;;;13.50;99.90;;;;;;5022161;28;21143;-85
2022/03/14 11:37:46;;;;;;;1.17;0.30;;;13.30;99.90;;;;;;5024647;28;20188;-85
2022/03/14 11:40:14;;;;;;;0.20;0.20;;;13.30;99.90;;;;;;5023393;28;20758;-85
2022/03/14 11:42:39;;;;;;;0.40;0.40;;;13.20;99.90;;;;;;5014357;28;20217;-85
2022/03/14 11:45:11;;;;;;;0.10;0.10;;;13.20;99.90;;;;;;5023173;28;20196;-85
2022/03/14 11:47:37;;;;;;;0.30;0.30;;;13.50;99.90;;;;;;5022545;28;20186;-85
2022/03/14 11:50:04;;;;;;;0.00;0.00;;;13.60;99.90;;;;;;5025600;28;20231;-84
2022/03/14 11:52:41;;;;;;;0.20;0.20;;;13.70;99.90;;;;;;5015103;28;20206;-85
2022/03/14 11:55:21;;;;;;;0.10;0.10;;;13.80;99.90;;;;;;5025548;28;20756;-85
2022/03/14 11:57:47;;;;;;;0.13;0.13;;;14.00;99.90;;;;;;5024201;28;20189;-85
2022/03/14 12:00:24;;;;;;;0.23;0.23;;;14.40;99.90;;;;;;5021348;28;20200;-85
2022/03/14 12:02:51;;;;;;;0.27;0.20;;;14.00;99.90;;;;;;5021583;28;20224;-85
2022/03/14 12:05:47;;;;;;;0.27;0.20;;;13.70;99.90;;;;;;5024484;28;20208;-85
2022/03/14 12:08:15;;;;;;;0.33;0.20;;;13.50;99.90;;;;;;5015636;28;20296;-85
2022/03/14 12:10:42;;;;;;;0.87;0.50;;;13.40;99.90;;;;;;5025620;28;21668;-85
2022/03/14 12:13:08;;;;;;;0.30;0.30;;;13.30;99.90;;;;;;5024790;28;20649;-85
2022/03/14 12:15:41;;;;;;;0.10;0.10;;;13.20;99.90;;;;;;5018335;28;20372;-85
2022/03/14 12:18:28;;;;;;;0.10;0.10;;;13.00;99.90;;;;;;5022540;28;20272;-85
2022/03/14 12:20:59;;;;;;;0.10;0.10;;;12.60;99.90;;;;;;5022814;28;20271;-85
2022/03/14 12:23:33;;;;;;;0.10;0.10;;;12.50;99.90;;;;;;5030090;28;20306;-85
2022/03/14 12:26:01;;;;;;;0.10;0.10;;;12.30;99.90;;;;;;5023270;28;20187;-85
2022/03/14 12:28:32;;;;;;;0.37;0.30;;;12.30;99.90;;;;;;5020120;28;20214;-85
2022/03/14 12:31:10;;;;;;;0.10;0.10;;;12.40;99.90;;;;;;5022538;28;20353;-83
2022/03/14 12:34:08;;;;;;;0.20;0.20;;;12.50;99.90;;;;;;5023950;28;20174;-83
2022/03/14 12:36:34;;;;;;;0.17;0.17;;;12.70;99.90;;;;;;5036787;28;20190;-84
2022/03/14 12:39:09;;;;;;;0.10;0.10;;;12.80;99.90;;;;;;5024478;28;20188;-83
2022/03/14 12:41:35;;;;;;;0.20;0.20;;;12.90;99.90;;;;;;5022726;28;20216;-83
2022/03/14 12:44:02;;;;;;;0.10;0.10;;;12.90;99.90;;;;;;5019461;28;20196;-83
2022/03/14 12:46:29;;;;;;;0.10;0.10;;;12.70;99.90;;;;;;5017864;28;20186;-83
2022/03/14 12:48:55;;;;;;;0.10;0.10;;;12.70;99.90;;;;;;5022644;28;21103;-85
2022/03/14 12:51:26;;;;;;;0.10;0.10;;;12.90;99.90;;;;;;5021275;28;20217;-84